Time;durP1;ratioP1;P1;durP2;ratioP2;P2;SDS_P1;SDS_P2;PMS_P1;PMS_P2;Temp;Humidity;BMP_temperature;BMP_pressure;BME280_temperature;BME280_humidity;BME280_pressure;Samples;Min_cycle;Max_cycle;Signal;HPM_P1;HPM_P2
2023/01/21 00:01:56;;;;;;;78.17;39.67;;;0.00;98.50;;;;;;5050542;28;21010;-90
2023/01/21 00:04:21;;;;;;;70.18;38.05;;;-0.10;98.40;;;;;;5049061;28;20453;-90
2023/01/21 00:06:48;;;;;;;81.50;40.13;;;-0.10;98.30;;;;;;5050268;28;20423;-91
2023/01/21 00:09:13;;;;;;;66.30;37.30;;;-0.20;98.50;;;;;;5066306;28;20412;-91
2023/01/21 00:11:39;;;;;;;59.43;35.87;;;-0.20;98.60;;;;;;5066526;28;20419;-91
2023/01/21 00:14:05;;;;;;;59.73;35.37;;;-0.20;98.60;;;;;;5049974;28;20411;-91
2023/01/21 00:16:31;;;;;;;75.07;38.17;;;-0.20;98.50;;;;;;5048935;28;20926;-91
2023/01/21 00:18:56;;;;;;;69.57;37.40;;;-0.30;98.60;;;;;;5067220;28;20480;-90
2023/01/21 00:21:22;;;;;;;86.35;39.50;;;-0.30;98.70;;;;;;5065509;28;20424;-90
2023/01/21 00:23:47;;;;;;;57.47;35.03;;;-0.30;98.60;;;;;;5066976;28;20438;-91
2023/01/21 00:26:13;;;;;;;63.93;35.03;;;-0.30;98.60;;;;;;5048577;28;20400;-91
2023/01/21 00:28:42;;;;;;;60.73;35.03;;;-0.30;98.60;;;;;;5049709;28;20453;-92
2023/01/21 00:31:09;;;;;;;65.53;37.00;;;-0.10;98.30;;;;;;5049405;28;20408;-90
2023/01/21 00:33:35;;;;;;;62.80;36.50;;;-0.30;98.40;;;;;;5050027;28;20399;-90
2023/01/21 00:36:04;;;;;;;68.40;36.78;;;-0.30;98.50;;;;;;5049952;28;20831;-88
2023/01/21 00:38:30;;;;;;;71.72;37.50;;;-0.30;98.50;;;;;;5048772;28;20404;-90
2023/01/21 00:41:03;;;;;;;70.20;37.72;;;-0.40;98.60;;;;;;5066899;28;20423;-90
2023/01/21 00:43:28;;;;;;;82.13;38.70;;;-0.40;98.70;;;;;;5065303;28;20416;-92
2023/01/21 00:45:54;;;;;;;72.47;36.83;;;-0.40;98.80;;;;;;5050261;28;20407;-90
2023/01/21 00:48:20;;;;;;;58.57;34.60;;;-0.40;98.70;;;;;;5049037;28;20418;-89
2023/01/21 00:50:45;;;;;;;68.83;36.63;;;-0.40;98.50;;;;;;5049125;28;20415;-92
2023/01/21 00:53:11;;;;;;;57.22;33.65;;;-0.20;98.50;;;;;;5049733;28;20408;-91
2023/01/21 00:55:36;;;;;;;76.88;37.97;;;-0.40;98.50;;;;;;5065393;28;20423;-90
2023/01/21 00:58:04;;;;;;;58.38;35.88;;;-0.40;98.50;;;;;;5066218;28;20498;-89
2023/01/21 01:00:29;;;;;;;67.25;37.45;;;-0.50;98.50;;;;;;5048089;28;20938;-92
2023/01/21 01:02:55;;;;;;;57.92;33.65;;;-0.50;98.70;;;;;;5050041;28;20420;-92
2023/01/21 01:05:21;;;;;;;94.50;40.30;;;-0.50;98.70;;;;;;5065053;28;20898;-88
2023/01/21 01:07:49;;;;;;;70.13;37.60;;;-0.60;98.70;;;;;;5049349;28;20774;-90
2023/01/21 01:10:15;;;;;;;95.17;40.53;;;-0.60;99.00;;;;;;5049195;28;20817;-91
2023/01/21 01:12:41;;;;;;;73.97;39.17;;;-0.60;98.90;;;;;;5065371;28;20411;-91
2023/01/21 01:15:08;;;;;;;97.13;42.53;;;-0.50;99.10;;;;;;5048327;28;20706;-90
2023/01/21 01:17:34;;;;;;;96.10;41.22;;;-0.60;99.10;;;;;;5064806;28;20400;-90
2023/01/21 01:19:59;;;;;;;99.07;41.90;;;-0.60;99.10;;;;;;5049723;28;20411;-89
2023/01/21 01:22:25;;;;;;;81.70;40.57;;;-0.60;99.00;;;;;;5047529;28;20424;-89
2023/01/21 01:24:51;;;;;;;101.22;41.55;;;-0.60;99.00;;;;;;5066232;28;20418;-90
2023/01/21 01:27:16;;;;;;;76.43;39.13;;;-0.70;98.90;;;;;;5064656;28;20414;-89
2023/01/21 01:29:42;;;;;;;93.60;42.63;;;-0.70;98.90;;;;;;5048834;28;20759;-90
2023/01/21 01:32:09;;;;;;;105.50;44.47;;;-0.70;98.90;;;;;;5066021;28;20404;-90
2023/01/21 01:34:35;;;;;;;89.55;42.15;;;-0.70;99.20;;;;;;5065107;28;21192;-90
2023/01/21 01:37:02;;;;;;;99.10;43.17;;;-0.70;99.00;;;;;;5065797;28;20392;-89
2023/01/21 01:39:27;;;;;;;76.37;39.83;;;-0.70;99.00;;;;;;5064320;28;20514;-90
2023/01/21 01:41:53;;;;;;;87.00;39.90;;;-0.70;99.00;;;;;;5065955;28;20419;-90
2023/01/21 01:44:53;;;;;;;75.27;38.50;;;-0.70;99.00;;;;;;5047913;28;20499;-89
2023/01/21 01:47:20;;;;;;;63.28;35.95;;;-0.70;99.00;;;;;;5064839;28;20404;-90
2023/01/21 01:49:46;;;;;;;97.10;41.88;;;-0.80;99.00;;;;;;5065433;28;20549;-89
2023/01/21 01:52:14;;;;;;;65.35;38.40;;;-0.80;99.00;;;;;;5047767;28;20858;-90
2023/01/21 01:55:00;;;;;;;79.95;40.65;;;-0.80;99.30;;;;;;5066269;28;20418;-89
2023/01/21 01:57:36;;;;;;;95.50;43.37;;;-0.80;99.30;;;;;;5047607;28;20473;-90
2023/01/21 02:00:08;;;;;;;92.75;42.40;;;-0.70;99.30;;;;;;5048374;28;20549;-91
2023/01/21 02:02:34;;;;;;;77.75;40.15;;;-0.70;99.10;;;;;;5046526;28;20849;-91
2023/01/21 02:05:04;;;;;;;88.28;42.40;;;-0.80;99.00;;;;;;5047971;28;20500;-90
2023/01/21 02:07:38;;;;;;;86.75;41.17;;;-0.70;99.20;;;;;;5048359;28;20415;-90
2023/01/21 02:10:07;;;;;;;58.53;35.20;;;-0.70;99.40;;;;;;5047193;28;20942;-90
2023/01/21 02:12:34;;;;;;;69.93;36.92;;;-0.70;99.10;;;;;;5048868;28;20431;-89
2023/01/21 02:14:59;;;;;;;95.95;41.78;;;-0.70;99.00;;;;;;5047821;28;20935;-88
2023/01/21 02:18:10;;;;;;;85.13;41.17;;;-0.70;99.20;;;;;;5064734;28;20408;-89
2023/01/21 02:21:13;;;;;;;68.25;37.15;;;-0.70;99.50;;;;;;5065745;28;20419;-89
2023/01/21 02:24:06;;;;;;;72.68;37.88;;;-0.70;99.10;;;;;;5047334;28;20451;-89
2023/01/21 02:26:58;;;;;;;83.60;40.38;;;-0.80;98.80;;;;;;5049979;28;20403;-90
2023/01/21 02:29:51;;;;;;;72.95;39.05;;;-0.80;99.00;;;;;;5052218;28;20494;-89
2023/01/21 02:32:55;;;;;;;96.05;44.45;;;-0.80;98.70;;;;;;5067632;28;20408;-88
2023/01/21 02:35:35;;;;;;;90.07;42.57;;;-0.90;99.00;;;;;;5067346;28;20481;-89
2023/01/21 02:38:10;;;;;;;68.65;37.15;;;-0.90;99.10;;;;;;5068786;28;20415;-90
2023/01/21 02:41:05;;;;;;;64.40;36.17;;;-0.90;99.00;;;;;;5050613;28;20408;-89
2023/01/21 02:43:56;;;;;;;65.53;37.10;;;-0.90;98.70;;;;;;5062214;28;20507;-89
2023/01/21 02:46:46;;;;;;;77.05;40.65;;;-1.00;98.60;;;;;;5051881;28;20416;-87
2023/01/21 02:49:15;;;;;;;81.53;41.60;;;-1.00;98.90;;;;;;5039517;28;20414;-89
2023/01/21 02:51:48;;;;;;;60.83;36.70;;;-1.00;99.10;;;;;;5051481;28;20442;-90
2023/01/21 02:54:15;;;;;;;83.05;42.80;;;-1.00;98.90;;;;;;5067551;28;20494;-89
2023/01/21 02:56:43;;;;;;;67.78;37.33;;;-1.00;98.80;;;;;;5067065;28;20416;-89
2023/01/21 02:59:09;;;;;;;85.18;42.05;;;-1.00;99.00;;;;;;5051591;28;20427;-89
2023/01/21 03:02:04;;;;;;;74.55;38.38;;;-1.00;99.20;;;;;;5049659;28;20427;-89
2023/01/21 03:04:59;;;;;;;88.60;42.75;;;-1.00;99.00;;;;;;5068490;28;20802;-88
2023/01/21 03:07:33;;;;;;;102.50;45.08;;;-1.10;99.20;;;;;;5050869;28;20416;-89
2023/01/21 03:10:21;;;;;;;77.38;40.60;;;-1.00;99.50;;;;;;5049910;28;20419;-88
2023/01/21 03:12:46;;;;;;;75.90;41.03;;;-1.00;99.50;;;;;;5068360;28;20418;-88
2023/01/21 03:18:25;;;;;;;70.20;37.33;;;-1.10;99.00;;;;;;5066402;28;20403;-89
2023/01/21 03:21:06;;;;;;;66.25;36.08;;;-1.20;98.90;;;;;;5067681;28;20424;-88
2023/01/21 03:23:35;;;;;;;70.05;38.72;;;-1.20;99.20;;;;;;5066141;28;20411;-88
2023/01/21 03:26:02;;;;;;;72.28;40.00;;;-1.30;98.90;;;;;;5050767;28;20404;-89
2023/01/21 03:28:31;;;;;;;72.40;39.25;;;-1.30;98.80;;;;;;5049571;28;20426;-88
2023/01/21 03:31:04;;;;;;;70.53;36.80;;;-1.20;99.00;;;;;;5050146;28;20488;-89
2023/01/21 03:33:33;;;;;;;87.53;42.30;;;-1.30;98.70;;;;;;5050448;28;20408;-89
2023/01/21 03:36:01;;;;;;;91.93;41.90;;;-1.30;99.00;;;;;;5049292;28;20427;-88
2023/01/21 03:38:36;;;;;;;86.20;40.58;;;-1.30;99.30;;;;;;5049855;28;20403;-89
2023/01/21 03:41:12;;;;;;;64.75;35.33;;;-1.40;99.40;;;;;;5065408;28;20743;-88
2023/01/21 03:43:38;;;;;;;56.58;34.45;;;-1.40;98.80;;;;;;5067020;28;20419;-89
2023/01/21 03:46:19;;;;;;;54.58;34.00;;;-1.50;98.50;;;;;;5066309;28;20400;-88
2023/01/21 03:48:58;;;;;;;61.83;34.90;;;-1.60;98.50;;;;;;5066516;28;20481;-88
2023/01/21 03:51:31;;;;;;;79.30;40.10;;;-1.60;98.80;;;;;;5066975;28;20465;-88
2023/01/21 03:53:58;;;;;;;70.97;37.67;;;-1.60;99.30;;;;;;5065410;28;20435;-89
2023/01/21 03:56:27;;;;;;;81.27;39.37;;;-1.60;99.50;;;;;;5066865;28;20488;-88
2023/01/21 03:58:53;;;;;;;98.00;43.42;;;-1.60;99.40;;;;;;5065303;28;20419;-88
2023/01/21 04:01:19;;;;;;;75.25;38.10;;;-1.60;99.30;;;;;;5066508;28;20440;-89
2023/01/21 04:03:45;;;;;;;77.03;38.35;;;-1.60;99.50;;;;;;5049789;28;20461;-89
2023/01/21 04:06:15;;;;;;;67.32;36.88;;;-1.50;99.40;;;;;;5048707;28;20452;-89
2023/01/21 04:08:41;;;;;;;76.05;39.50;;;-1.50;99.20;;;;;;5050157;28;20412;-87
2023/01/21 04:11:06;;;;;;;64.57;37.05;;;-1.50;99.20;;;;;;5048767;28;20483;-89
2023/01/21 04:13:32;;;;;;;68.63;38.97;;;-1.50;99.20;;;;;;5066213;28;20454;-88
2023/01/21 04:15:58;;;;;;;77.40;41.30;;;-1.50;99.10;;;;;;5065258;28;20428;-88
2023/01/21 04:18:23;;;;;;;78.80;41.00;;;-1.50;99.40;;;;;;5065862;28;20461;-89
2023/01/21 04:20:49;;;;;;;77.47;41.67;;;-1.40;99.60;;;;;;5048492;28;20431;-87
2023/01/21 04:23:14;;;;;;;84.73;43.27;;;-1.30;99.80;;;;;;5065359;28;20508;-89
2023/01/21 04:25:40;;;;;;;85.43;42.67;;;-1.20;99.90;;;;;;5049511;28;20399;-88
2023/01/21 04:28:05;;;;;;;83.35;41.45;;;-1.10;99.90;;;;;;5047862;28;20940;-88
2023/01/21 04:30:31;;;;;;;73.07;38.92;;;-1.10;99.90;;;;;;5049293;28;20403;-89
2023/01/21 04:32:57;;;;;;;85.37;42.60;;;-1.00;99.90;;;;;;5064645;28;20411;-89
2023/01/21 04:35:22;;;;;;;74.82;39.40;;;-1.00;99.60;;;;;;5049639;28;20422;-90
2023/01/21 04:37:48;;;;;;;88.10;42.58;;;-1.00;99.60;;;;;;5064634;28;20446;-88
2023/01/21 04:40:14;;;;;;;83.97;42.20;;;-1.00;99.60;;;;;;5048864;28;20429;-88
2023/01/21 04:42:41;;;;;;;73.87;39.90;;;-0.90;99.70;;;;;;5048875;28;20423;-87
2023/01/21 04:45:07;;;;;;;85.35;42.97;;;-0.90;99.70;;;;;;5047686;28;20424;-89
2023/01/21 04:47:32;;;;;;;88.00;44.33;;;-0.80;99.80;;;;;;5065756;28;20392;-89
2023/01/21 04:49:58;;;;;;;77.82;41.50;;;-0.80;99.90;;;;;;5047064;28;20487;-89
2023/01/21 04:52:24;;;;;;;89.40;43.47;;;-0.70;99.90;;;;;;5048681;28;20424;-88
2023/01/21 04:54:49;;;;;;;96.10;43.47;;;-0.70;99.80;;;;;;5064191;28;20845;-88
2023/01/21 04:57:15;;;;;;;90.85;44.88;;;-0.60;99.90;;;;;;5049114;28;20434;-89
2023/01/21 04:59:40;;;;;;;86.57;43.65;;;-0.60;99.90;;;;;;5064562;28;20475;-88
2023/01/21 05:02:06;;;;;;;92.30;42.70;;;-0.60;99.90;;;;;;5048207;28;20461;-89
2023/01/21 05:04:32;;;;;;;85.03;44.93;;;-0.50;99.80;;;;;;5065738;28;20767;-89
2023/01/21 05:06:57;;;;;;;104.00;47.00;;;-0.50;99.70;;;;;;5047494;28;20867;-89
2023/01/21 05:09:23;;;;;;;96.10;45.90;;;-0.50;99.70;;;;;;5048944;28;20408;-89
2023/01/21 05:11:49;;;;;;;90.18;43.17;;;-0.50;99.70;;;;;;5047151;28;20407;-89
2023/01/21 05:14:14;;;;;;;83.73;43.83;;;-0.50;99.30;;;;;;5065751;28;20408;-88
2023/01/21 05:16:40;;;;;;;89.83;44.77;;;-0.60;99.20;;;;;;5064261;28;20449;-88
2023/01/21 05:19:05;;;;;;;86.05;43.50;;;-0.60;99.40;;;;;;5064757;28;20432;-88
2023/01/21 05:21:31;;;;;;;81.30;43.30;;;-0.70;99.10;;;;;;5064786;28;20474;-87
2023/01/21 05:23:56;;;;;;;107.30;48.27;;;-0.80;99.20;;;;;;5064381;28;20415;-89
2023/01/21 05:26:22;;;;;;;112.87;49.43;;;-0.70;99.50;;;;;;5048612;28;20407;-89
2023/01/21 05:28:48;;;;;;;119.05;49.47;;;-0.70;99.90;;;;;;5046750;28;20426;-87
2023/01/21 05:31:13;;;;;;;101.10;47.97;;;-0.70;99.90;;;;;;5048528;28;20950;-89
2023/01/21 05:33:39;;;;;;;124.93;50.57;;;-0.60;99.90;;;;;;5063959;28;20408;-87
2023/01/21 05:36:05;;;;;;;132.00;53.43;;;-0.60;99.90;;;;;;5064869;28;20404;-89
2023/01/21 05:38:31;;;;;;;97.60;46.70;;;-0.50;99.90;;;;;;5047064;28;20926;-88
2023/01/21 05:41:00;;;;;;;85.28;43.33;;;-0.50;99.90;;;;;;5048251;28;20426;-88
2023/01/21 05:43:26;;;;;;;133.75;52.70;;;-0.60;99.60;;;;;;5064794;28;20457;-88
2023/01/21 05:45:52;;;;;;;101.57;48.13;;;-0.50;99.80;;;;;;5047037;28;20498;-88
2023/01/21 05:48:19;;;;;;;114.10;50.58;;;-0.50;99.70;;;;;;5065085;28;20503;-88
2023/01/21 05:50:44;;;;;;;94.80;46.78;;;-0.50;99.90;;;;;;5063168;28;20408;-88
2023/01/21 05:53:10;;;;;;;113.45;49.90;;;-0.60;99.70;;;;;;5065033;28;20426;-89
2023/01/21 05:55:36;;;;;;;115.43;49.57;;;-0.60;99.80;;;;;;5047191;28;20403;-88
2023/01/21 05:58:03;;;;;;;144.93;52.35;;;-0.60;99.60;;;;;;5048517;28;20396;-88
2023/01/21 06:00:29;;;;;;;100.97;45.95;;;-0.70;99.50;;;;;;5048418;28;20483;-88
2023/01/21 06:02:55;;;;;;;93.27;45.97;;;-0.80;99.30;;;;;;5068028;28;20518;-89
2023/01/21 06:05:20;;;;;;;99.97;45.63;;;-0.80;99.40;;;;;;5068493;28;20457;-88
2023/01/21 06:07:46;;;;;;;64.60;38.45;;;-0.90;99.10;;;;;;5050764;28;20412;-88
2023/01/21 06:10:12;;;;;;;104.07;48.97;;;-1.00;98.60;;;;;;5069027;28;20414;-88
2023/01/21 06:12:37;;;;;;;84.97;43.80;;;-1.10;98.80;;;;;;5067176;28;20408;-87
2023/01/21 06:15:03;;;;;;;80.73;42.60;;;-1.10;99.40;;;;;;5068547;28;20404;-88
2023/01/21 06:17:29;;;;;;;100.53;46.73;;;-1.20;98.90;;;;;;5050532;28;20418;-87
2023/01/21 06:19:54;;;;;;;104.23;47.60;;;-1.20;99.50;;;;;;5051098;28;20461;-89
2023/01/21 06:22:20;;;;;;;104.27;48.63;;;-1.00;99.90;;;;;;5068202;28;20426;-88
2023/01/21 06:24:46;;;;;;;90.20;44.60;;;-1.20;99.90;;;;;;5050482;28;20419;-89
2023/01/21 06:27:11;;;;;;;111.33;46.87;;;-1.20;99.80;;;;;;5068322;28;20396;-88
2023/01/21 06:29:37;;;;;;;166.23;58.20;;;-1.20;99.80;;;;;;5050407;28;20439;-88
2023/01/21 06:32:03;;;;;;;113.93;49.00;;;-1.20;99.90;;;;;;5051794;28;20404;-89
2023/01/21 06:34:28;;;;;;;75.77;40.17;;;-1.20;99.90;;;;;;5066131;28;20396;-87
2023/01/21 06:36:54;;;;;;;122.27;50.13;;;-1.30;99.70;;;;;;5068244;28;20503;-88
2023/01/21 06:39:20;;;;;;;84.72;43.92;;;-1.30;99.80;;;;;;5067216;28;20412;-88
2023/01/21 06:41:45;;;;;;;117.97;48.63;;;-1.40;99.60;;;;;;5050692;28;20561;-89
2023/01/21 06:44:11;;;;;;;119.57;48.43;;;-1.40;99.60;;;;;;5050904;28;20770;-88
2023/01/21 06:46:36;;;;;;;94.33;45.73;;;-1.50;99.70;;;;;;5050429;28;20404;-88
2023/01/21 06:49:02;;;;;;;107.93;47.05;;;-1.50;99.70;;;;;;5051268;28;20408;-87
2023/01/21 06:51:28;;;;;;;109.38;46.75;;;-1.50;99.50;;;;;;5048908;28;20438;-88
2023/01/21 06:53:53;;;;;;;103.03;47.03;;;-1.60;99.50;;;;;;5051533;28;20434;-89
2023/01/21 06:56:20;;;;;;;107.67;46.23;;;-1.60;99.50;;;;;;5050144;28;20826;-87
2023/01/21 06:58:46;;;;;;;100.53;45.63;;;-1.60;99.50;;;;;;5067567;28;20396;-89
2023/01/21 07:01:12;;;;;;;99.00;46.30;;;-1.60;99.50;;;;;;5067486;28;20459;-88
2023/01/21 07:03:38;;;;;;;126.22;50.90;;;-1.70;99.50;;;;;;5049630;28;20439;-87
2023/01/21 07:06:04;;;;;;;121.93;50.45;;;-1.70;99.70;;;;;;5050476;28;20473;-87
2023/01/21 07:08:29;;;;;;;135.85;52.95;;;-1.70;99.90;;;;;;5049038;28;20905;-88
2023/01/21 07:10:55;;;;;;;96.27;45.53;;;-1.70;99.90;;;;;;5050748;28;20487;-86
2023/01/21 07:13:20;;;;;;;141.67;53.30;;;-1.70;99.80;;;;;;5064603;28;20457;-88
2023/01/21 07:15:46;;;;;;;123.95;51.13;;;-1.80;99.50;;;;;;5067504;28;20570;-88
2023/01/21 07:18:12;;;;;;;143.23;54.70;;;-1.80;99.90;;;;;;5066276;28;20418;-87
2023/01/21 07:20:39;;;;;;;127.47;52.60;;;-1.80;99.90;;;;;;5049686;28;20404;-88
2023/01/21 07:23:04;;;;;;;105.90;49.63;;;-1.80;99.80;;;;;;5050172;28;20433;-88
2023/01/21 07:25:31;;;;;;;85.93;43.30;;;-1.90;99.70;;;;;;5049267;28;20415;-88
2023/01/21 07:27:57;;;;;;;122.03;52.63;;;-1.90;99.50;;;;;;5067280;28;20396;-88
2023/01/21 07:30:22;;;;;;;93.47;46.08;;;-1.90;99.70;;;;;;5048862;28;20537;-88
2023/01/21 07:32:48;;;;;;;98.23;47.80;;;-1.90;99.70;;;;;;5050043;28;20460;-88
2023/01/21 07:35:14;;;;;;;88.88;47.50;;;-2.00;99.70;;;;;;5049322;28;20426;-87
2023/01/21 07:37:39;;;;;;;113.68;55.30;;;-2.00;99.30;;;;;;5066612;28;20423;-88
2023/01/21 07:40:06;;;;;;;119.47;57.33;;;-2.10;99.20;;;;;;5049629;28;20411;-88
2023/01/21 07:42:32;;;;;;;141.70;61.63;;;-2.10;99.40;;;;;;5064991;28;20434;-88
2023/01/21 07:44:58;;;;;;;134.90;57.65;;;-2.10;99.60;;;;;;5049530;28;20473;-88
2023/01/21 07:47:24;;;;;;;122.40;55.00;;;-2.20;99.80;;;;;;5048655;28;20805;-88
2023/01/21 07:49:50;;;;;;;108.05;52.40;;;-2.10;99.80;;;;;;5049657;28;20465;-88
2023/01/21 07:52:15;;;;;;;116.40;52.25;;;-2.10;99.90;;;;;;5065126;28;20419;-87
2023/01/21 07:54:41;;;;;;;105.63;49.05;;;-2.20;99.90;;;;;;5066608;28;20423;-87
2023/01/21 07:57:07;;;;;;;96.75;47.85;;;-2.20;99.90;;;;;;5065463;28;20906;-88
2023/01/21 07:59:32;;;;;;;97.13;47.17;;;-2.20;99.90;;;;;;5049105;28;20439;-88
2023/01/21 08:01:58;;;;;;;113.43;51.67;;;-2.20;99.80;;;;;;5065909;28;20434;-87
2023/01/21 08:04:24;;;;;;;137.40;56.97;;;-2.20;99.80;;;;;;5048621;28;20400;-88
2023/01/21 08:06:55;;;;;;;115.15;53.08;;;-2.20;99.90;;;;;;5066065;28;20408;-87
2023/01/21 08:09:24;;;;;;;125.35;54.38;;;-2.20;99.90;;;;;;5064907;28;20443;-88
2023/01/21 08:11:50;;;;;;;92.72;47.65;;;-2.20;99.90;;;;;;5049569;28;20411;-87
2023/01/21 08:14:15;;;;;;;90.80;49.77;;;-2.20;99.90;;;;;;5048222;28;20415;-87
2023/01/21 08:16:41;;;;;;;94.43;49.17;;;-2.20;99.90;;;;;;5049211;28;20925;-88
2023/01/21 08:19:07;;;;;;;110.67;51.73;;;-2.30;99.50;;;;;;5049208;28;20902;-87
2023/01/21 08:21:32;;;;;;;81.95;44.38;;;-2.30;99.80;;;;;;5047805;28;20446;-88
2023/01/21 08:23:58;;;;;;;109.27;51.27;;;-2.30;99.60;;;;;;5049105;28;20404;-88
2023/01/21 08:26:23;;;;;;;96.00;48.97;;;-2.20;99.90;;;;;;5064767;28;20406;-88
2023/01/21 08:28:51;;;;;;;117.72;54.15;;;-2.10;99.90;;;;;;5049222;28;20411;-88
2023/01/21 08:31:17;;;;;;;99.80;50.70;;;-2.00;99.90;;;;;;5047588;28;20447;-87
2023/01/21 08:33:43;;;;;;;89.40;49.47;;;-2.00;99.90;;;;;;5065480;28;20491;-87
2023/01/21 08:36:08;;;;;;;100.85;49.83;;;-2.00;99.70;;;;;;5064854;28;20945;-87
2023/01/21 08:38:35;;;;;;;94.93;47.05;;;-1.90;99.90;;;;;;5065218;28;20411;-88
2023/01/21 08:41:00;;;;;;;122.85;58.90;;;-1.80;99.90;;;;;;5065327;28;20779;-88
2023/01/21 08:43:26;;;;;;;129.00;56.50;;;-1.70;99.90;;;;;;5064379;28;20404;-88
2023/01/21 08:45:56;;;;;;;99.80;50.17;;;-1.60;99.90;;;;;;5065626;28;20407;-88
2023/01/21 08:48:22;;;;;;;114.15;53.97;;;-1.50;99.90;;;;;;5064177;28;20404;-88
2023/01/21 08:50:47;;;;;;;118.05;55.92;;;-1.40;99.90;;;;;;5048494;28;20426;-88
2023/01/21 08:53:13;;;;;;;159.73;63.40;;;-1.40;99.90;;;;;;5047972;28;20407;-87
2023/01/21 08:55:38;;;;;;;131.60;58.40;;;-1.30;99.90;;;;;;5065531;28;20890;-87
2023/01/21 08:58:04;;;;;;;116.57;53.53;;;-1.20;99.90;;;;;;5047970;28;20453;-88
2023/01/21 09:00:30;;;;;;;128.15;56.83;;;-1.10;99.90;;;;;;5047814;28;20413;-88
2023/01/21 09:02:57;;;;;;;127.75;56.65;;;-1.10;99.80;;;;;;5048505;28;20423;-88
2023/01/21 09:05:23;;;;;;;125.60;53.92;;;-1.00;99.80;;;;;;5047641;28;20464;-89
2023/01/21 09:07:48;;;;;;;127.30;58.47;;;-1.00;99.90;;;;;;5049010;28;20399;-89
2023/01/21 09:10:59;;;;;;;124.50;58.20;;;-0.90;99.70;;;;;;5047151;28;20440;-88
2023/01/21 09:13:07;;;;;;;116.22;56.85;;;-0.80;99.90;;;;;;5065055;28;20910;-89
2023/01/21 09:15:40;;;;;;;134.68;60.78;;;-0.80;99.80;;;;;;5048219;28;20922;-88
2023/01/21 09:18:06;;;;;;;147.30;62.78;;;-0.70;99.80;;;;;;5043423;28;20411;-89
2023/01/21 09:20:32;;;;;;;170.33;67.13;;;-0.60;99.90;;;;;;5048419;28;20899;-88
2023/01/21 09:22:58;;;;;;;102.73;51.33;;;-0.50;99.90;;;;;;5047025;28;20435;-89
2023/01/21 09:25:24;;;;;;;117.97;56.60;;;-0.40;99.90;;;;;;5065366;28;20453;-88
2023/01/21 09:27:50;;;;;;;108.90;51.85;;;-0.30;99.60;;;;;;5047065;28;20404;-88
2023/01/21 09:30:16;;;;;;;103.15;51.90;;;-0.30;99.50;;;;;;5065134;28;20419;-89
2023/01/21 09:32:41;;;;;;;116.82;55.50;;;-0.20;99.50;;;;;;5047787;28;20499;-89
2023/01/21 09:35:07;;;;;;;105.10;52.07;;;-0.10;99.50;;;;;;5064524;28;20408;-89
2023/01/21 09:37:33;;;;;;;101.25;52.20;;;0.00;99.30;;;;;;5052486;28;20406;-87
2023/01/21 09:40:00;;;;;;;134.82;60.50;;;0.00;99.30;;;;;;5068116;28;20410;-88
2023/01/21 09:42:30;;;;;;;110.03;52.60;;;0.10;99.70;;;;;;5052434;28;20434;-88
2023/01/21 09:44:58;;;;;;;102.72;53.03;;;0.30;99.30;;;;;;5051312;28;20832;-89
2023/01/21 09:47:32;;;;;;;111.65;54.00;;;0.30;99.10;;;;;;5069604;28;20392;-88
2023/01/21 09:50:13;;;;;;;87.75;48.40;;;0.40;99.30;;;;;;5045263;28;20906;-89
2023/01/21 09:52:45;;;;;;;84.63;47.07;;;0.50;99.40;;;;;;5068440;28;20416;-90
2023/01/21 09:55:15;;;;;;;69.43;43.85;;;0.70;99.50;;;;;;5052037;28;20430;-87
2023/01/21 09:57:58;;;;;;;80.67;46.43;;;0.90;99.50;;;;;;5067624;28;20488;-88
2023/01/21 10:00:45;;;;;;;58.42;40.25;;;1.00;99.30;;;;;;5068689;28;20399;-89
2023/01/21 10:03:40;;;;;;;60.55;39.75;;;1.40;99.80;;;;;;5051680;28;20423;-89
2023/01/21 10:06:11;;;;;;;55.25;38.22;;;1.70;98.80;;;;;;5067547;28;20507;-88
2023/01/21 10:08:58;;;;;;;58.97;40.30;;;2.10;98.30;;;;;;5052261;28;20439;-89
2023/01/21 10:11:45;;;;;;;58.83;40.67;;;2.40;97.90;;;;;;5050564;28;20515;-89
2023/01/21 10:14:23;;;;;;;57.40;40.55;;;2.80;97.30;;;;;;5067792;28;20412;-89
2023/01/21 10:17:12;;;;;;;54.10;38.45;;;3.00;96.40;;;;;;5068294;28;20407;-88
2023/01/21 10:19:42;;;;;;;51.07;37.80;;;3.40;96.60;;;;;;5067406;28;20898;-87
2023/01/21 10:22:14;;;;;;;50.83;38.15;;;3.60;95.40;;;;;;5068455;28;20489;-89
2023/01/21 10:25:01;;;;;;;52.92;40.45;;;3.60;94.60;;;;;;5050882;28;20439;-88
2023/01/21 10:27:31;;;;;;;49.25;37.00;;;3.70;94.60;;;;;;5050607;28;20419;-88
2023/01/21 10:30:04;;;;;;;43.80;33.70;;;3.80;94.60;;;;;;5068641;28;20907;-89
2023/01/21 10:32:32;;;;;;;42.03;33.38;;;4.00;94.60;;;;;;5050092;28;20410;-89
2023/01/21 10:34:57;;;;;;;43.97;33.75;;;4.20;94.20;;;;;;5051105;28;20404;-90
2023/01/21 10:37:44;;;;;;;34.90;27.20;;;4.50;95.00;;;;;;5067227;28;20419;-89
2023/01/21 10:40:42;;;;;;;35.75;28.98;;;4.90;94.00;;;;;;5067076;28;20586;-89
2023/01/21 10:43:13;;;;;;;31.48;26.35;;;5.20;93.40;;;;;;5068488;28;20534;-90
2023/01/21 10:46:21;;;;;;;31.20;25.65;;;5.40;92.70;;;;;;5066859;28;20407;-90
2023/01/21 10:49:08;;;;;;;30.92;25.10;;;5.60;91.30;;;;;;5065523;28;20415;-89
2023/01/21 10:51:44;;;;;;;32.58;26.73;;;5.60;91.40;;;;;;5068138;28;20423;-90
2023/01/21 10:54:33;;;;;;;31.05;25.38;;;6.00;93.60;;;;;;5049968;28;20404;-91
2023/01/21 10:57:13;;;;;;;27.77;24.00;;;6.40;92.20;;;;;;5061827;28;20439;-90
2023/01/21 10:59:40;;;;;;;25.23;21.88;;;6.60;92.60;;;;;;5051346;28;20430;-91
2023/01/21 11:02:20;;;;;;;23.23;19.57;;;7.00;92.60;;;;;;5066856;28;20486;-91
2023/01/21 11:04:46;;;;;;;23.05;20.50;;;7.30;89.20;;;;;;5051653;28;20569;-91
2023/01/21 11:07:16;;;;;;;20.75;18.55;;;7.50;91.60;;;;;;5066980;28;20857;-90
2023/01/21 11:09:45;;;;;;;22.03;19.60;;;7.70;87.40;;;;;;5051702;28;20443;-92
2023/01/21 11:12:20;;;;;;;24.70;21.50;;;7.90;89.70;;;;;;5067385;28;20412;-90
2023/01/21 11:15:06;;;;;;;23.00;20.60;;;8.00;85.90;;;;;;5050686;28;20396;-91
2023/01/21 11:17:38;;;;;;;21.17;18.87;;;8.20;89.20;;;;;;5051833;28;20427;-92
2023/01/21 11:20:22;;;;;;;21.70;19.20;;;8.40;89.80;;;;;;5049880;28;20444;-91
2023/01/21 11:22:49;;;;;;;19.90;17.85;;;8.70;88.60;;;;;;5051179;28;20427;-92
2023/01/21 11:25:34;;;;;;;18.90;16.67;;;8.90;87.20;;;;;;5051172;28;20884;-91
2023/01/21 11:28:00;;;;;;;17.10;15.27;;;9.20;87.00;;;;;;5050349;28;20422;-91
2023/01/21 11:30:38;;;;;;;15.75;14.15;;;9.30;81.30;;;;;;5050962;28;20400;-90
2023/01/21 11:33:23;;;;;;;13.75;12.35;;;9.30;82.00;;;;;;5049720;28;20444;-92
2023/01/21 11:35:51;;;;;;;14.90;13.40;;;9.30;79.30;;;;;;5067756;28;20419;-93
2023/01/21 11:38:28;;;;;;;14.25;12.85;;;9.40;81.30;;;;;;5067405;28;20441;-90
2023/01/21 11:41:10;;;;;;;17.20;15.40;;;9.00;83.20;;;;;;5050687;28;20410;-91
2023/01/21 11:43:41;;;;;;;17.70;15.90;;;8.60;80.20;;;;;;5051927;28;20490;-92
2023/01/21 11:46:29;;;;;;;16.38;14.68;;;8.50;87.40;;;;;;5049714;28;20426;-92
2023/01/21 11:49:16;;;;;;;15.60;14.00;;;8.40;83.80;;;;;;5067418;28;20887;-91
2023/01/21 11:51:44;;;;;;;14.90;13.40;;;8.00;83.90;;;;;;5050752;28;20917;-92
2023/01/21 11:54:23;;;;;;;15.15;13.55;;;7.80;84.60;;;;;;5049562;28;20400;-91
2023/01/21 11:56:51;;;;;;;15.33;13.73;;;7.60;84.30;;;;;;5051486;28;20775;-92
2023/01/21 11:59:37;;;;;;;16.63;14.82;;;7.50;85.50;;;;;;5049031;28;20906;-91
2023/01/21 12:02:15;;;;;;;14.88;13.38;;;7.50;87.80;;;;;;5050323;28;20942;-91
2023/01/21 12:04:55;;;;;;;14.30;12.80;;;7.70;85.00;;;;;;5050203;28;20416;-91
2023/01/21 12:07:28;;;;;;;14.07;12.57;;;7.90;83.30;;;;;;5049324;28;21095;-93
2023/01/21 12:10:03;;;;;;;14.38;12.68;;;8.20;82.90;;;;;;5067690;28;20403;-91
2023/01/21 12:12:47;;;;;;;12.68;10.95;;;8.50;82.80;;;;;;5049830;28;20404;-91
2023/01/21 12:15:34;;;;;;;13.10;11.73;;;8.90;81.50;;;;;;5050054;28;20472;-91
2023/01/21 12:18:25;;;;;;;13.00;11.70;;;9.30;81.50;;;;;;5050800;28;20829;-91
2023/01/21 12:21:04;;;;;;;13.57;12.23;;;9.80;79.40;;;;;;5065663;28;20415;-91
2023/01/21 12:24:03;;;;;;;13.95;12.55;;;10.20;81.20;;;;;;5049991;28;20977;-92
2023/01/21 12:26:37;;;;;;;13.65;12.25;;;10.30;75.30;;;;;;5050269;28;20821;-91
2023/01/21 12:29:24;;;;;;;14.05;12.55;;;10.20;78.50;;;;;;5048808;28;20426;-92
2023/01/21 12:32:00;;;;;;;14.20;12.77;;;9.90;77.30;;;;;;5050234;28;20415;-92
2023/01/21 12:34:42;;;;;;;14.25;12.75;;;9.50;76.50;;;;;;5049654;28;20946;-90
2023/01/21 12:37:17;;;;;;;13.27;11.88;;;9.30;76.80;;;;;;5049234;28;20408;-91
2023/01/21 12:39:47;;;;;;;13.93;12.50;;;9.00;76.90;;;;;;5066751;28;20528;-91
2023/01/21 12:42:20;;;;;;;14.87;13.27;;;8.80;77.80;;;;;;5048352;28;20776;-91
2023/01/21 12:45:17;;;;;;;13.07;11.68;;;8.60;79.90;;;;;;5050006;28;20412;-90
2023/01/21 12:48:14;;;;;;;12.65;11.35;;;8.50;76.70;;;;;;5037570;28;20404;-90